.
WxDataArchive / Data Records for 2010-08-17
2010-08-16 August 2010 2010-08-18

Data Records for Tuesday, 17 August 2010

Time	Temp	Chill	HIndex	Humid	Dewpt	 Wind 	HiWind	WindDir	Rain 	Barom 
-----	----	-----	------	-----	-----	------	------	-------	-----	----- 
00:00	65.6	65.6	65.6	65	53.5	0	0	---	0.00	30.035 
00:05	65.6	65.6	65.6	65	53.5	0	0	---	0.00	30.035 
00:10	65.5	65.5	65.5	65	53.4	0	0	---	0.00	30.035 
00:15	65.3	65.3	65.3	66	53.6	0	0	---	0.00	30.038 
00:20	65.3	65.3	65.3	66	53.6	0	0	---	0.00	30.038 
00:25	65.2	65.2	65.2	66	53.5	0	0	---	0.00	30.038 
00:30	65.0	65.0	65.0	67	53.8	0	0	---	0.00	30.035 
00:35	65.0	65.0	65.0	69	54.6	0	0	---	0.00	30.035 
00:40	64.7	64.7	64.7	70	54.7	0	0	---	0.00	30.035 
00:45	64.5	64.5	64.5	72	55.3	0	0	---	0.00	30.044 
00:50	64.3	64.3	64.3	72	55.1	0	0	---	0.00	30.044 
00:55	64.2	64.2	64.2	72	55.0	0	0	---	0.00	30.044 
01:00	64.0	64.0	64.0	73	55.2	0	0	---	0.00	30.044 
01:05	63.9	63.9	63.9	73	55.1	0	0	---	0.00	30.044 
01:10	63.7	63.7	63.7	73	54.9	0	0	---	0.00	30.044 
01:15	63.7	63.7	63.7	73	54.9	0	0	---	0.00	30.045 
01:20	63.5	63.5	63.5	74	55.1	0	0	---	0.00	30.045 
01:25	63.4	63.4	63.4	75	55.3	0	0	---	0.00	30.045 
01:30	63.2	63.2	63.2	76	55.5	0	0	---	0.00	30.045 
01:35	62.9	62.9	62.9	76	55.2	0	0	---	0.00	30.045 
01:40	62.7	62.7	62.7	76	55.0	0	0	---	0.00	30.045 
01:45	62.6	62.6	62.6	77	55.3	0	0	---	0.00	30.048 
01:50	62.6	62.6	62.6	77	55.3	0	0	---	0.00	30.048 
01:55	62.4	62.4	62.4	77	55.1	0	0	---	0.00	30.048 
02:00	62.3	62.3	62.3	78	55.3	0	0	---	0.00	30.047 
02:05	62.3	62.3	62.3	78	55.3	0	0	---	0.00	30.047 
02:10	62.1	62.1	62.1	78	55.2	0	0	---	0.00	30.047 
02:15	62.0	62.0	62.0	79	55.4	0	0	---	0.00	30.047 
02:20	62.0	62.0	62.0	80	55.8	0	0	---	0.00	30.047 
02:25	61.8	61.8	61.8	80	55.6	0	0	---	0.00	30.047 
02:30	61.8	61.8	61.8	80	55.6	0	0	---	0.00	30.037 
02:35	61.6	61.6	61.6	81	55.7	0	0	---	0.00	30.037 
02:40	61.5	61.5	61.5	81	55.6	0	0	---	0.00	30.037 
02:45	61.5	61.5	61.5	81	55.6	0	0	---	0.00	30.039 
02:50	61.5	61.5	61.5	82	55.9	0	0	---	0.00	30.039 
02:55	61.3	61.3	61.3	82	55.8	0	0	---	0.00	30.039 
03:00	61.3	61.3	61.3	82	55.8	0	0	---	0.00	30.046 
03:05	61.3	61.3	61.3	82	55.8	0	0	---	0.00	30.046 
03:10	61.3	61.3	61.3	82	55.8	0	0	---	0.00	30.046 
03:15	61.3	61.3	61.3	82	55.8	0	0	---	0.00	30.044 
03:20	61.2	61.2	61.2	82	55.7	0	0	---	0.00	30.044 
03:25	61.2	61.2	61.2	82	55.7	0	0	---	0.00	30.044 
03:30	61.2	61.2	61.2	82	55.7	0	0	---	0.00	30.046 
03:35	61.2	61.2	61.2	82	55.7	0	0	---	0.00	30.046 
03:40	61.2	61.2	61.2	82	55.7	0	0	---	0.00	30.046 
03:45	61.2	61.2	61.2	82	55.7	0	0	---	0.00	30.046 
03:50	61.2	61.2	61.2	82	55.7	0	0	---	0.00	30.046 
03:55	61.2	61.2	61.2	83	56.0	0	0	---	0.00	30.046 
04:00	61.2	61.2	61.2	83	56.0	0	0	---	0.00	30.048 
04:05	61.2	61.2	61.2	83	56.0	0	0	---	0.00	30.048 
04:10	61.0	61.0	61.0	83	55.8	0	0	---	0.00	30.048 
04:15	61.0	61.0	61.0	83	55.8	0	0	---	0.00	30.048 
04:20	60.9	60.9	60.9	83	55.7	0	0	---	0.00	30.048 
04:25	60.9	60.9	60.9	84	56.0	0	0	---	0.00	30.048 
04:30	60.9	60.9	60.9	84	56.0	0	0	---	0.00	30.048 
04:35	60.7	60.7	60.7	84	55.8	0	0	---	0.00	30.048 
04:40	60.7	60.7	60.7	84	55.8	0	0	---	0.00	30.048 
04:45	60.5	60.5	60.5	84	55.6	0	0	---	0.00	30.049 
04:50	60.4	60.4	60.4	84	55.5	0	0	---	0.00	30.049 
04:55	60.4	60.4	60.4	85	55.9	0	0	---	0.00	30.049 
05:00	60.2	60.2	60.2	85	55.7	0	0	---	0.00	30.049 
05:05	60.2	60.2	60.2	85	55.7	0	0	---	0.00	30.049 
05:10	60.2	60.2	60.2	86	56.0	0	0	---	0.00	30.049 
05:15	60.1	60.1	60.1	86	55.9	0	0	---	0.00	30.050 
05:20	60.1	60.1	60.1	86	55.9	0	0	---	0.00	30.050 
05:25	60.1	60.1	60.1	87	56.2	0	0	---	0.00	30.050 
05:30	60.2	60.2	60.2	87	56.3	0	0	---	0.00	30.049 
05:35	60.2	60.2	60.2	87	56.3	0	0	---	0.00	30.049 
05:40	60.2	60.2	60.2	88	56.6	0	0	---	0.00	30.049 
05:45	60.2	60.2	60.2	88	56.6	0	0	---	0.00	30.049 
05:50	60.2	60.2	60.2	88	56.6	0	0	---	0.00	30.049 
05:55	60.4	60.4	60.4	88	56.8	0	0	---	0.00	30.049 
06:00	60.4	60.4	60.4	88	56.8	0	0	---	0.00	30.051 
06:05	60.5	60.5	60.5	88	56.9	0	0	---	0.00	30.051 
06:10	60.5	60.5	60.5	88	56.9	0	0	---	0.00	30.051 
06:15	60.5	60.5	60.5	88	56.9	0	0	---	0.00	30.059 
06:20	60.7	60.7	60.7	88	57.1	0	0	---	0.00	30.059 
06:25	60.7	60.7	60.7	88	57.1	0	0	---	0.00	30.059 
06:30	60.7	60.7	60.7	88	57.1	0	0	---	0.00	30.057 
06:35	60.7	60.7	60.7	88	57.1	0	0	---	0.00	30.057 
06:40	60.5	60.5	60.5	88	56.9	0	0	---	0.00	30.057 
06:45	60.5	60.5	60.5	88	56.9	0	0	---	0.00	30.060 
06:50	60.4	60.4	60.4	88	56.8	0	0	---	0.00	30.060 
06:55	60.4	60.4	60.4	88	56.8	0	0	---	0.00	30.060 
07:00	60.2	60.2	60.2	88	56.6	0	0	---	0.00	30.062 
07:05	60.2	60.2	60.2	88	56.6	0	0	---	0.00	30.062 
07:10	60.1	60.1	60.1	88	56.5	0	0	---	0.00	30.062 
07:15	60.1	60.1	60.1	88	56.5	0	0	---	0.00	30.065 
07:20	60.1	60.1	60.1	88	56.5	0	0	---	0.00	30.065 
07:25	60.2	60.2	60.2	89	56.9	0	0	---	0.00	30.065 
07:30	60.2	60.2	60.2	89	56.9	0	0	---	0.00	30.067 
07:35	60.2	60.2	60.2	89	56.9	0	0	---	0.00	30.067 
07:40	60.5	60.5	60.5	89	57.2	0	0	---	0.00	30.067 
07:45	60.9	60.9	60.9	89	57.6	0	0	---	0.00	30.068 
07:50	61.3	61.3	61.3	89	58.0	0	0	---	0.00	30.068 
07:55	62.0	62.0	62.0	89	58.7	0	0	---	0.00	30.068 
08:00	62.7	62.7	62.7	88	59.1	0	0	---	0.00	30.069 
08:05	63.4	63.4	63.4	85	58.8	0	0	---	0.00	30.069 
08:10	64.0	64.0	64.0	84	59.1	0	1	292	0.00	30.069 
08:15	64.3	64.3	64.3	82	58.7	0	0	---	0.00	30.075 
08:20	64.7	64.7	64.7	81	58.7	0	0	---	0.00	30.075 
08:25	65.0	65.0	65.0	80	58.7	0	0	---	0.00	30.075 
08:30	65.3	65.3	65.3	80	59.0	0	1	292	0.00	30.072 
08:35	65.5	65.5	65.5	79	58.8	0	0	---	0.00	30.072 
08:40	65.6	65.6	65.6	79	58.9	0	0	---	0.00	30.072 
08:45	65.6	65.6	65.6	78	58.5	0	1	292	0.00	30.079 
08:50	65.8	65.8	65.8	78	58.7	0	0	---	0.00	30.079 
08:55	66.3	66.3	66.3	77	58.9	0	1	292	0.00	30.079 
09:00	66.9	66.9	66.9	76	59.1	0	1	292	0.00	30.078 
09:05	67.8	67.8	67.8	73	58.8	0	1	292	0.00	30.078 
09:10	68.4	68.4	68.4	70	58.2	0	2	292	0.00	30.078 
09:15	69.3	69.3	69.3	70	59.1	0	2	292	0.00	30.081 
09:20	69.6	69.6	69.6	68	58.6	0	2	292	0.00	30.081 
09:25	69.9	69.9	69.9	67	58.4	0	1	292	0.00	30.081 
09:30	70.4	70.4	70.4	65	58.1	0	1	292	0.00	30.077 
09:35	70.9	70.9	70.9	65	58.5	0	0	---	0.00	30.077 
09:40	71.5	71.5	71.5	65	59.1	0	1	292	0.00	30.077 
09:45	72.5	72.5	72.5	62	58.7	0	1	292	0.00	30.076 
09:50	73.3	73.3	73.3	62	59.5	0	1	292	0.00	30.076 
09:55	74.0	74.0	74.0	59	58.7	0	3	292	0.00	30.076 
10:00	74.7	74.7	74.7	57	58.4	0	2	292	0.00	30.077 
10:05	75.1	75.1	77.6	55	57.8	0	3	292	0.00	30.077 
10:10	75.1	75.1	77.6	54	57.3	1	4	292	0.00	30.077 
10:15	74.7	74.7	74.7	55	57.4	1	3	292	0.00	30.081 
10:20	74.7	74.7	74.7	55	57.4	1	2	292	0.00	30.081 
10:25	74.9	74.9	74.9	54	57.1	1	2	292	0.00	30.081 
10:30	75.1	75.1	77.6	54	57.3	1	3	292	0.00	30.083 
10:35	75.3	75.3	77.7	55	58.0	1	3	292	0.00	30.083 
10:40	75.8	75.8	78.0	53	57.4	1	3	292	0.00	30.083 
10:45	76.3	76.3	78.3	54	58.4	1	2	248	0.00	30.086 
10:50	77.0	77.0	78.7	52	58.0	1	3	292	0.00	30.086 
10:55	77.4	77.4	78.9	51	57.8	1	4	248	0.00	30.086 
11:00	77.7	77.7	79.0	50	57.6	1	3	270	0.00	30.087 
11:05	77.7	77.7	79.0	50	57.6	1	4	270	0.00	30.087 
11:10	77.9	77.9	79.2	50	57.7	1	3	270	0.00	30.087 
11:15	78.6	78.6	79.6	49	57.8	1	3	270	0.00	30.083 
11:20	79.2	79.2	80.0	48	57.8	1	3	270	0.00	30.083 
11:25	79.9	79.9	80.4	46	57.2	1	5	270	0.00	30.083 
11:30	80.3	80.3	80.6	45	57.0	1	3	248	0.00	30.084 
11:35	80.3	80.3	80.6	45	57.0	2	4	270	0.00	30.084 
11:40	80.7	80.7	81.1	47	58.6	0	2	270	0.00	30.084 
11:45	80.9	80.9	81.0	44	56.9	2	5	270	0.00	30.089 
11:50	81.2	81.2	81.3	45	57.8	1	2	270	0.00	30.089 
11:55	81.6	81.6	81.3	42	56.3	1	3	270	0.00	30.089 
12:00	81.6	81.6	81.5	43	56.9	2	6	270	0.00	30.084 
12:05	81.8	81.8	81.5	42	56.4	1	4	270	0.00	30.084 
12:10	81.8	81.8	81.5	42	56.4	1	3	270	0.00	30.084 
12:15	82.2	82.2	81.9	42	56.8	2	5	270	0.00	30.086 
12:20	81.2	81.2	81.0	42	55.9	2	4	270	0.00	30.086 
12:25	81.6	81.6	81.2	41	55.6	2	6	248	0.00	30.086 
12:30	81.8	81.8	81.6	43	57.1	2	5	270	0.00	30.079 
12:35	82.4	82.4	82.2	43	57.6	2	4	270	0.00	30.079 
12:40	83.0	83.0	82.6	42	57.5	1	3	292	0.00	30.079 
12:45	83.4	83.4	82.9	41	57.2	1	5	270	0.00	30.075 
12:50	83.2	83.2	82.7	41	57.0	2	4	270	0.00	30.075 
12:55	82.8	82.8	82.3	41	56.7	2	4	270	0.00	30.075 
13:00	82.6	82.6	82.1	41	56.5	2	5	270	0.00	30.070 
13:05	82.8	82.8	82.6	43	58.0	1	3	292	0.00	30.070 
13:10	82.8	82.8	82.4	42	57.3	1	4	292	0.00	30.070 
13:15	83.2	83.2	82.7	41	57.0	2	5	270	0.00	30.075 
13:20	83.2	83.2	82.7	41	57.0	1	3	270	0.00	30.075 
13:25	82.6	82.6	82.1	41	56.5	1	3	292	0.00	30.075 
13:30	83.0	83.0	82.5	41	56.8	2	6	315	0.00	30.074 
13:35	82.6	82.6	82.1	41	56.5	3	7	270	0.00	30.074 
13:40	82.2	82.2	81.9	42	56.8	2	7	292	0.00	30.074 
13:45	82.2	82.2	82.1	44	58.1	2	4	270	0.00	30.075 
13:50	82.4	82.4	82.5	45	58.9	1	3	270	0.00	30.075 
13:55	82.6	82.6	82.4	43	57.8	1	3	270	0.00	30.075 
14:00	82.4	82.4	82.3	44	58.3	2	9	270	0.00	30.063 
14:05	82.2	82.2	82.0	43	57.4	2	5	270	0.00	30.063 
14:10	82.6	82.6	82.5	44	58.4	2	5	270	0.00	30.063 
14:15	82.4	82.4	82.3	44	58.3	2	4	315	0.00	30.062 
14:20	82.8	82.8	82.7	44	58.6	1	3	292	0.00	30.062 
14:25	83.0	83.0	82.8	43	58.2	1	4	270	0.00	30.062 
14:30	82.4	82.4	82.3	44	58.3	2	4	292	0.00	30.064 
14:35	82.4	82.4	82.3	44	58.3	1	3	292	0.00	30.064 
14:40	82.2	82.2	82.4	46	59.3	2	4	315	0.00	30.064 
14:45	82.4	82.4	82.5	45	58.9	2	4	292	0.00	30.064 
14:50	82.6	82.6	82.7	45	59.1	2	5	292	0.00	30.064 
14:55	82.6	82.6	82.4	43	57.8	2	4	270	0.00	30.064 
15:00	82.4	82.4	82.3	44	58.3	2	4	270	0.00	30.065 
15:05	82.0	82.0	82.1	45	58.5	2	5	270	0.00	30.065 
15:10	82.0	82.0	82.2	46	59.1	1	3	270	0.00	30.065 
15:15	82.2	82.2	82.4	46	59.3	1	5	270	0.00	30.059 
15:20	82.2	82.2	82.4	46	59.3	1	4	270	0.00	30.059 
15:25	82.4	82.4	82.6	46	59.5	1	2	292	0.00	30.059 
15:30	82.8	82.8	82.7	44	58.6	1	3	292	0.00	30.055 
15:35	82.6	82.6	82.7	45	59.1	2	4	270	0.00	30.055 
15:40	82.4	82.4	82.5	45	58.9	1	4	292	0.00	30.055 
15:45	82.2	82.2	82.4	46	59.3	1	3	292	0.00	30.057 
15:50	82.2	82.2	82.4	46	59.3	1	4	315	0.00	30.057 
15:55	82.2	82.2	82.4	46	59.3	1	2	248	0.00	30.057 
16:00	82.2	82.2	82.5	47	59.9	0	2	248	0.00	30.058 
16:05	82.0	82.0	82.3	47	59.8	2	4	248	0.00	30.058 
16:10	81.6	81.6	82.1	48	60.0	1	4	270	0.00	30.058 
16:15	81.6	81.6	82.1	48	60.0	1	4	270	0.00	30.056 
16:20	81.6	81.6	82.1	48	60.0	2	5	270	0.00	30.056 
16:25	81.6	81.6	82.1	48	60.0	1	2	270	0.00	30.056 
16:30	81.6	81.6	82.1	48	60.0	1	3	270	0.00	30.051 
16:35	81.4	81.4	81.9	48	59.8	1	4	270	0.00	30.051 
16:40	81.2	81.2	81.7	48	59.6	2	4	270	0.00	30.051 
16:45	81.2	81.2	81.8	49	60.2	2	5	270	0.00	30.052 
16:50	81.1	81.1	81.7	49	60.1	1	3	270	0.00	30.052 
16:55	81.1	81.1	81.6	48	59.5	2	4	270	0.00	30.052 
17:00	80.9	80.9	81.5	49	59.9	2	5	270	0.00	30.050 
17:05	80.9	80.9	81.5	49	59.9	1	3	270	0.00	30.050 
17:10	80.7	80.7	81.4	50	60.3	2	5	292	0.00	30.050 
17:15	80.5	80.5	81.4	51	60.7	1	3	270	0.00	30.050 
17:20	80.7	80.7	81.4	50	60.3	2	4	270	0.00	30.050 
17:25	80.7	80.7	81.4	50	60.3	1	3	315	0.00	30.050 
17:30	80.7	80.7	81.4	50	60.3	2	5	270	0.00	30.049 
17:35	80.7	80.7	81.6	51	60.9	1	4	270	0.00	30.049 
17:40	80.5	80.5	81.3	50	60.1	1	4	270	0.00	30.049 
17:45	80.3	80.3	81.1	50	59.9	2	3	292	0.00	30.050 
17:50	80.1	80.1	80.9	50	59.8	2	5	270	0.00	30.050 
17:55	79.9	79.9	80.7	50	59.6	2	4	292	0.00	30.050 
18:00	79.8	79.8	80.7	51	60.0	2	5	270	0.00	30.050 
18:05	79.6	79.6	80.5	51	59.9	2	4	248	0.00	30.050 
18:10	79.6	79.6	80.5	51	59.9	2	5	270	0.00	30.050 
18:15	79.6	79.6	80.6	52	60.4	1	4	270	0.00	30.049 
18:20	79.4	79.4	80.5	52	60.2	1	3	270	0.00	30.049 
18:25	79.4	79.4	80.5	52	60.2	1	4	270	0.00	30.049 
18:30	79.2	79.2	80.4	53	60.6	1	3	315	0.00	30.053 
18:35	79.2	79.2	80.4	53	60.6	0	2	315	0.00	30.053 
18:40	79.0	79.0	80.1	52	59.8	1	3	315	0.00	30.053 
18:45	78.8	78.8	80.0	53	60.2	1	4	315	0.00	30.052 
18:50	78.8	78.8	80.0	53	60.2	1	4	292	0.00	30.052 
18:55	78.6	78.6	79.8	53	60.0	1	4	292	0.00	30.052 
19:00	78.5	78.5	79.8	53	59.9	2	5	270	0.00	30.052 
19:05	78.5	78.5	79.8	54	60.4	1	2	270	0.00	30.052 
19:10	78.3	78.3	79.7	54	60.3	1	4	270	0.00	30.052 
19:15	78.3	78.3	79.6	53	59.7	1	3	270	0.00	30.050 
19:20	78.1	78.1	79.5	54	60.1	1	3	292	0.00	30.050 
19:25	78.1	78.1	79.5	54	60.1	1	3	315	0.00	30.050 
19:30	77.9	77.9	79.3	54	59.9	1	3	315	0.00	30.046 
19:35	77.7	77.7	79.2	54	59.7	1	3	315	0.00	30.046 
19:40	77.7	77.7	79.2	55	60.2	0	2	315	0.00	30.046 
19:45	77.6	77.6	79.2	55	60.1	0	2	315	0.00	30.037 
19:50	77.6	77.6	79.2	56	60.6	0	1	315	0.00	30.037 
19:55	77.4	77.4	79.0	56	60.5	0	1	315	0.00	30.037 
20:00	77.2	77.2	78.9	57	60.8	0	1	315	0.00	30.046 
20:05	77.2	77.2	78.9	57	60.8	0	1	315	0.00	30.046 
20:10	77.0	77.0	78.7	57	60.6	0	1	315	0.00	30.046 
20:15	76.8	76.8	78.6	58	60.9	0	1	315	0.00	30.044 
20:20	76.7	76.7	78.5	58	60.8	0	1	315	0.00	30.044 
20:25	76.7	76.7	78.5	59	61.3	0	2	315	0.00	30.044 
20:30	76.5	76.5	78.4	59	61.1	0	1	315	0.00	30.053 
20:35	76.3	76.3	78.2	60	61.4	0	2	315	0.00	30.053 
20:40	76.1	76.1	78.1	60	61.2	1	4	315	0.00	30.053 
20:45	76.0	76.0	78.0	61	61.6	0	1	270	0.00	30.063 
20:50	75.8	75.8	77.8	62	61.8	0	0	---	0.00	30.063 
20:55	75.6	75.6	77.6	63	62.1	0	0	---	0.00	30.063 
21:00	75.3	75.3	77.4	63	61.8	0	1	270	0.00	30.050 
21:05	75.1	75.1	77.2	64	62.1	0	1	270	0.00	30.050 
21:10	74.9	74.9	74.9	64	61.9	0	0	---	0.00	30.050 
21:15	74.6	74.6	74.6	65	62.0	0	0	---	0.00	30.044 
21:20	74.4	74.4	74.4	65	61.8	0	0	---	0.00	30.044 
21:25	74.2	74.2	74.2	66	62.1	0	0	---	0.00	30.044 
21:30	74.0	74.0	74.0	66	61.9	0	0	---	0.00	30.058 
21:35	74.0	74.0	74.0	66	61.9	0	1	270	0.00	30.058 
21:40	73.9	73.9	73.9	65	61.4	0	0	---	0.00	30.058 
21:45	73.9	73.9	73.9	65	61.4	0	0	---	0.00	30.059 
21:50	73.7	73.7	73.7	65	61.2	0	0	---	0.00	30.059 
21:55	73.5	73.5	73.5	66	61.4	0	0	---	0.00	30.059 
22:00	73.3	73.3	73.3	66	61.2	0	0	---	0.00	30.061 
22:05	73.2	73.2	73.2	66	61.1	0	0	---	0.00	30.061 
22:10	73.0	73.0	73.0	66	61.0	0	0	---	0.00	30.061 
22:15	72.8	72.8	72.8	66	60.8	0	0	---	0.00	30.069 
22:20	72.7	72.7	72.7	66	60.7	0	0	---	0.00	30.069 
22:25	72.5	72.5	72.5	67	60.9	0	0	---	0.00	30.069 
22:30	72.3	72.3	72.3	67	60.7	0	0	---	0.00	30.072 
22:35	72.1	72.1	72.1	67	60.5	0	0	---	0.00	30.072 
22:40	72.1	72.1	72.1	68	60.9	0	0	---	0.00	30.072 
22:45	72.0	72.0	72.0	68	60.8	0	0	---	0.00	30.082 
22:50	72.0	72.0	72.0	67	60.4	0	0	---	0.00	30.082 
22:55	72.1	72.1	72.1	65	59.7	0	1	270	0.00	30.082 
23:00	72.1	72.1	72.1	66	60.1	0	0	---	0.00	30.086 
23:05	72.0	72.0	72.0	65	59.6	0	0	---	0.00	30.086 
23:10	71.8	71.8	71.8	64	59.0	0	0	---	0.00	30.086 
23:15	71.8	71.8	71.8	64	59.0	0	0	---	0.00	30.083 
23:20	71.6	71.6	71.6	64	58.8	0	0	---	0.00	30.083 
23:25	71.5	71.5	71.5	65	59.1	0	0	---	0.00	30.083 
23:30	71.5	71.5	71.5	66	59.5	0	0	---	0.00	30.086 
23:35	71.3	71.3	71.3	66	59.3	0	0	---	0.00	30.086 
23:40	71.3	71.3	71.3	67	59.8	0	0	---	0.00	30.086 
23:45	71.1	71.1	71.1	67	59.6	0	0	---	0.00	30.082 
23:50	70.9	70.9	70.9	69	60.2	0	0	---	0.00	30.082 
23:55	70.8	70.8	70.8	69	60.1	0	0	---	0.00	30.082 

CoCoRaHS
IN-AL-39
A2 Web Hosting
Creative Commons License
GoDaddy
search engine by freefind advanced

loaded 2018-11-15 05:31:16 • last modified 2010-11-18 10:43:29
Privacy PolicyDisclaimer
• wx.awcolley.com is powered by PmWiki v.2002016 •
• all content (unless otherwise noted) © 2018 A W Colley